createdAt,value
2023-02-27T00:01:00.486Z,102544.75
2023-02-27T00:03:27.231Z,102546.56
2023-02-27T00:05:53.579Z,102552.75
2023-02-27T00:08:19.915Z,102557.00
2023-02-27T00:10:46.236Z,102553.63
2023-02-27T00:13:12.712Z,102559.03
2023-02-27T00:15:40.407Z,102561.63
2023-02-27T00:18:06.773Z,102560.78
2023-02-27T00:20:33.368Z,102561.75
2023-02-27T00:22:59.657Z,102560.16
2023-02-27T00:25:25.950Z,102552.09
2023-02-27T00:27:52.309Z,102549.53
2023-02-27T00:30:18.729Z,102553.88
2023-02-27T00:32:46.382Z,102549.72
2023-02-27T00:35:12.698Z,102550.50
2023-02-27T00:37:39.049Z,102549.81
2023-02-27T00:40:06.001Z,102555.13
2023-02-27T00:42:32.323Z,102549.88
2023-02-27T00:44:58.643Z,102552.44
2023-02-27T00:47:24.988Z,102544.50
2023-02-27T00:49:52.613Z,102550.50
2023-02-27T00:52:18.955Z,102548.81
2023-02-27T00:54:45.234Z,102548.00
2023-02-27T00:57:11.787Z,102542.19
2023-02-27T00:59:38.113Z,102540.44
2023-02-27T01:02:04.445Z,102541.41
2023-02-27T01:04:30.828Z,102530.19
2023-02-27T01:06:58.516Z,102526.75
2023-02-27T01:09:24.869Z,102535.56
2023-02-27T01:11:51.186Z,102534.78
2023-02-27T01:14:17.563Z,102534.84
2023-02-27T01:16:43.889Z,102534.88
2023-02-27T01:19:10.242Z,102535.69
2023-02-27T01:21:36.607Z,102540.94
2023-02-27T01:24:04.503Z,102534.69
2023-02-27T01:26:30.823Z,102542.78
2023-02-27T01:28:57.092Z,102542.06
2023-02-27T01:31:23.533Z,102539.47
2023-02-27T01:33:49.992Z,102538.56
2023-02-27T01:36:16.460Z,102542.06
2023-02-27T01:38:42.787Z,102548.28
2023-02-27T01:41:10.512Z,102545.75
2023-02-27T01:43:51.742Z,102545.72
2023-02-27T01:46:18.057Z,102546.50
2023-02-27T01:48:44.349Z,102537.84
2023-02-27T01:51:12.199Z,102542.25
2023-02-27T01:53:39.978Z,102538.75
2023-02-27T01:56:09.490Z,102543.97
2023-02-27T01:58:37.553Z,102545.75
2023-02-27T02:01:04.013Z,102545.81
2023-02-27T02:03:33.049Z,102546.75
2023-02-27T02:06:01.575Z,102548.66
2023-02-27T02:08:28.933Z,102553.06
2023-02-27T02:10:56.662Z,102552.34
2023-02-27T02:13:22.983Z,102551.50
2023-02-27T02:15:57.562Z,102554.22
2023-02-27T02:18:29.035Z,102549.94
2023-02-27T02:21:09.669Z,102549.88
2023-02-27T02:23:53.986Z,102549.03
2023-02-27T02:26:40.585Z,102542.94
2023-02-27T02:29:20.757Z,102544.56
2023-02-27T02:31:59.562Z,102544.53
2023-02-27T02:34:50.261Z,102545.31
2023-02-27T02:37:34.239Z,102540.19
2023-02-27T02:40:09.213Z,102541.84
2023-02-27T02:42:38.773Z,102542.00
2023-02-27T02:45:10.607Z,102543.78
2023-02-27T02:47:44.028Z,102534.31
2023-02-27T02:50:12.390Z,102543.88
2023-02-27T02:52:43.985Z,102551.78
2023-02-27T02:55:14.092Z,102550.13
2023-02-27T02:57:43.745Z,102535.38
2023-02-27T03:00:13.549Z,102545.84
2023-02-27T03:02:43.627Z,102550.19
2023-02-27T03:05:14.351Z,102547.66
2023-02-27T03:07:43.057Z,102558.06
2023-02-27T03:10:11.585Z,102549.44
2023-02-27T03:12:41.096Z,102552.88
2023-02-27T03:15:12.029Z,102556.47
2023-02-27T03:17:40.846Z,102554.81
2023-02-27T03:20:08.747Z,102558.41
2023-02-27T03:22:36.683Z,102566.22
2023-02-27T03:25:05.608Z,102566.31
2023-02-27T03:27:33.597Z,102567.22
2023-02-27T03:30:04.149Z,102564.59
2023-02-27T03:32:33.062Z,102563.69
2023-02-27T03:34:59.871Z,102567.22
2023-02-27T03:37:30.321Z,102566.34
2023-02-27T03:40:00.434Z,102560.28
2023-02-27T03:42:31.902Z,102564.72
2023-02-27T03:45:01.792Z,102571.75
2023-02-27T03:47:29.766Z,102564.78
2023-02-27T03:49:56.303Z,102568.16
2023-02-27T03:52:23.974Z,102565.53
2023-02-27T03:54:53.867Z,102568.00
2023-02-27T03:57:20.273Z,102566.22
2023-02-27T03:59:46.582Z,102573.09
2023-02-27T04:02:12.896Z,102572.31
2023-02-27T04:04:40.531Z,102568.09
2023-02-27T04:07:10.355Z,102575.13
2023-02-27T04:09:43.122Z,102577.75
2023-02-27T04:12:19.234Z,102580.41
2023-02-27T04:14:56.228Z,102577.81
2023-02-27T04:17:24.233Z,102584.72
2023-02-27T04:20:11.627Z,102583.06
2023-02-27T04:22:39.008Z,102583.13
2023-02-27T04:25:13.128Z,102585.72
2023-02-27T04:27:40.992Z,102592.66
2023-02-27T04:30:15.131Z,102587.47
2023-02-27T04:32:45.019Z,102593.50
2023-02-27T04:35:15.006Z,102591.84
2023-02-27T04:37:44.369Z,102593.63
2023-02-27T04:40:12.300Z,102596.09
2023-02-27T04:42:40.271Z,102603.16
2023-02-27T04:45:08.637Z,102598.81
2023-02-27T04:47:37.302Z,102602.44
2023-02-27T04:50:07.367Z,102600.72
2023-02-27T04:52:37.838Z,102600.75
2023-02-27T04:55:09.533Z,102596.41
2023-02-27T04:57:37.725Z,102593.84
2023-02-27T05:00:06.071Z,102592.19
2023-02-27T05:02:35.444Z,102602.50
2023-02-27T05:05:04.043Z,102610.34
2023-02-27T05:07:31.382Z,102614.69
2023-02-27T05:10:00.855Z,102612.97
2023-02-27T05:12:32.470Z,102599.91
2023-02-27T05:15:01.775Z,102607.72
2023-02-27T05:17:30.354Z,102603.44
2023-02-27T05:19:56.802Z,102609.59
2023-02-27T05:22:27.882Z,102612.25
2023-02-27T05:24:58.227Z,102622.69
2023-02-27T05:27:29.792Z,102625.31
2023-02-27T05:29:59.052Z,102627.09
2023-02-27T05:32:30.555Z,102625.44
2023-02-27T05:35:00.357Z,102620.28
2023-02-27T05:37:29.493Z,102622.94
2023-02-27T05:39:55.904Z,102626.38
2023-02-27T05:42:24.490Z,102622.84
2023-02-27T05:44:55.434Z,102625.44
2023-02-27T05:47:23.502Z,102626.34
2023-02-27T05:49:52.448Z,102632.44
2023-02-27T05:52:21.763Z,102631.56
2023-02-27T05:54:51.216Z,102644.66
2023-02-27T05:57:22.645Z,102643.81
2023-02-27T05:59:51.882Z,102647.31
2023-02-27T06:02:19.645Z,102642.97
2023-02-27T06:04:46.090Z,102643.91
2023-02-27T06:07:12.856Z,102654.31
2023-02-27T06:09:39.253Z,102661.25
2023-02-27T06:12:05.662Z,102665.63
2023-02-27T06:14:31.984Z,102657.91
2023-02-27T06:16:58.359Z,102667.44
2023-02-27T06:19:26.083Z,102670.06
2023-02-27T06:21:52.414Z,102671.78
2023-02-27T06:24:19.381Z,102672.63
2023-02-27T06:26:46.723Z,102678.66
2023-02-27T06:29:13.033Z,102682.13
2023-02-27T06:31:39.353Z,102689.06
2023-02-27T06:34:05.665Z,102685.63
2023-02-27T06:36:33.345Z,102676.13
2023-02-27T06:38:59.667Z,102686.53
2023-02-27T06:41:26.009Z,102681.31
2023-02-27T06:43:52.371Z,102687.34
2023-02-27T06:46:18.779Z,102697.72
2023-02-27T06:48:45.118Z,102693.31
2023-02-27T06:51:11.431Z,102704.47
2023-02-27T06:53:39.104Z,102697.56
2023-02-27T06:56:05.977Z,102701.00
2023-02-27T06:58:32.297Z,102700.00
2023-02-27T07:00:58.716Z,102706.06
2023-02-27T07:03:25.044Z,102704.31
2023-02-27T07:05:51.365Z,102705.13
2023-02-27T07:08:17.697Z,102715.50
2023-02-27T07:10:45.618Z,102713.66
2023-02-27T07:13:12.567Z,102714.41
2023-02-27T07:15:39.558Z,102720.31
2023-02-27T07:18:06.097Z,102723.72
2023-02-27T07:20:32.376Z,102727.88
2023-02-27T07:22:58.703Z,102730.50
2023-02-27T07:25:25.039Z,102734.72
2023-02-27T07:27:52.724Z,102743.31
2023-02-27T07:30:19.045Z,102738.91
2023-02-27T07:32:45.624Z,102739.59
2023-02-27T07:35:11.953Z,102735.97
2023-02-27T07:37:38.332Z,102743.69
2023-02-27T07:40:05.178Z,102747.13
2023-02-27T07:42:31.506Z,102751.22
2023-02-27T07:44:59.337Z,102743.22
2023-02-27T07:47:25.696Z,102744.03
2023-02-27T07:49:52.034Z,102746.44
2023-02-27T07:52:18.338Z,102745.47
2023-02-27T07:54:44.688Z,102751.41
2023-02-27T07:57:10.984Z,102742.56
2023-02-27T07:59:37.294Z,102738.91
2023-02-27T08:02:04.959Z,102736.19
2023-02-27T08:04:31.387Z,102735.16
2023-02-27T08:06:57.751Z,102741.13
2023-02-27T08:09:24.114Z,102737.50
2023-02-27T08:11:50.463Z,102739.09
2023-02-27T08:14:16.815Z,102742.41
2023-02-27T08:16:43.125Z,102746.63
2023-02-27T08:19:11.727Z,102748.16
2023-02-27T08:21:38.050Z,102748.09
2023-02-27T08:24:04.453Z,102753.91
2023-02-27T08:26:31.027Z,102752.88
2023-02-27T08:28:57.426Z,102753.47
2023-02-27T08:31:23.922Z,102759.28
2023-02-27T08:33:58.115Z,102758.09
2023-02-27T08:36:35.590Z,102757.00
2023-02-27T08:39:01.979Z,102762.03
2023-02-27T08:41:28.301Z,102762.91
2023-02-27T08:43:54.628Z,102760.06
2023-02-27T08:46:20.925Z,102759.19
2023-02-27T08:48:47.239Z,102766.03
2023-02-27T08:51:13.568Z,102764.94
2023-02-27T08:53:41.276Z,102769.78
2023-02-27T08:56:07.589Z,102770.56
2023-02-27T08:58:33.959Z,102775.53
2023-02-27T09:01:00.263Z,102767.34
2023-02-27T09:03:26.580Z,102771.53
2023-02-27T09:05:52.983Z,102767.72
2023-02-27T09:08:19.306Z,102770.63
2023-02-27T09:10:46.962Z,102775.38
2023-02-27T09:13:13.498Z,102777.66
2023-02-27T09:15:39.835Z,102775.34
2023-02-27T09:18:06.391Z,102774.03
2023-02-27T09:20:33.261Z,102770.06
2023-02-27T09:22:59.626Z,102769.06
2023-02-27T09:25:26.482Z,102771.34
2023-02-27T09:27:54.163Z,102770.84
2023-02-27T09:30:20.752Z,102771.38
2023-02-27T09:32:47.086Z,102779.88
2023-02-27T09:35:13.447Z,102777.66
2023-02-27T09:37:39.760Z,102767.81
2023-02-27T09:40:06.728Z,102766.09
2023-02-27T09:42:36.204Z,102772.97
2023-02-27T09:45:06.135Z,102777.00
2023-02-27T09:47:35.542Z,102769.72
2023-02-27T09:50:02.955Z,102778.34
2023-02-27T09:52:29.999Z,102784.41
2023-02-27T09:54:56.398Z,102787.59
2023-02-27T09:57:28.349Z,102775.75
2023-02-27T09:59:56.663Z,102776.13
2023-02-27T10:02:32.564Z,102770.38
2023-02-27T10:05:02.583Z,102772.53
2023-02-27T10:07:32.826Z,102778.78
2023-02-27T10:10:02.558Z,102778.50
2023-02-27T10:12:40.284Z,102773.59
2023-02-27T10:15:11.361Z,102773.69
2023-02-27T10:17:41.980Z,102777.91
2023-02-27T10:20:10.438Z,102781.75
2023-02-27T10:22:39.863Z,102772.25
2023-02-27T10:25:15.171Z,102777.13
2023-02-27T10:27:48.872Z,102772.78
2023-02-27T10:30:29.592Z,102763.91
2023-02-27T10:33:01.798Z,102773.97
2023-02-27T10:35:30.834Z,102762.09
2023-02-27T10:37:59.128Z,102765.22
2023-02-27T10:40:26.029Z,102766.66
2023-02-27T10:42:54.541Z,102757.28
2023-02-27T10:45:20.879Z,102754.31
2023-02-27T10:47:47.419Z,102750.38
2023-02-27T10:50:22.519Z,102746.72
2023-02-27T10:52:49.600Z,102747.44
2023-02-27T10:55:17.042Z,102747.84
2023-02-27T10:57:43.389Z,102741.88
2023-02-27T11:00:22.670Z,102735.69
2023-02-27T11:02:50.185Z,102728.31
2023-02-27T11:05:19.210Z,102730.56
2023-02-27T11:07:47.554Z,102728.84
2023-02-27T11:10:16.534Z,102737.13
2023-02-27T11:12:43.590Z,102742.66
2023-02-27T11:15:21.435Z,102741.31
2023-02-27T11:17:47.758Z,102731.59
2023-02-27T11:20:31.574Z,102730.38
2023-02-27T11:23:04.085Z,102732.03
2023-02-27T11:25:30.432Z,102727.34
2023-02-27T11:28:11.608Z,102720.88
2023-02-27T11:30:37.902Z,102716.53
2023-02-27T11:33:04.198Z,102715.63
2023-02-27T11:35:31.423Z,102717.31
2023-02-27T11:37:59.771Z,102715.03
2023-02-27T11:40:29.981Z,102716.22
2023-02-27T11:42:58.398Z,102708.06
2023-02-27T11:46:13.376Z,102712.44
2023-02-27T11:48:18.461Z,102708.28
2023-02-27T11:50:59.618Z,102699.41
2023-02-27T11:53:32.996Z,102711.16
2023-02-27T11:56:02.555Z,102699.66
2023-02-27T11:58:32.638Z,102702.53
2023-02-27T12:01:01.373Z,102705.66
2023-02-27T12:03:33.626Z,102700.97
2023-02-27T12:06:02.820Z,102691.81
2023-02-27T12:08:32.320Z,102695.44
2023-02-27T12:11:13.071Z,102693.66
2023-02-27T12:13:45.324Z,102688.88
2023-02-27T12:16:16.415Z,102696.34
2023-02-27T12:18:44.727Z,102695.94
2023-02-27T12:21:13.638Z,102681.44
2023-02-27T12:23:41.739Z,102682.06
2023-02-27T12:26:12.742Z,102679.22
2023-02-27T12:28:45.712Z,102678.69
2023-02-27T12:31:18.594Z,102683.75
2023-02-27T12:33:48.543Z,102680.63
2023-02-27T12:36:15.058Z,102682.72
2023-02-27T12:38:41.796Z,102677.31
2023-02-27T12:41:32.391Z,102683.06
2023-02-27T12:44:07.243Z,102677.66
2023-02-27T12:46:38.568Z,102676.88
2023-02-27T12:49:22.936Z,102673.31
2023-02-27T12:51:52.655Z,102671.28
2023-02-27T12:54:30.171Z,102664.88
2023-02-27T12:57:11.406Z,102664.94
2023-02-27T12:59:47.020Z,102666.34
2023-02-27T13:02:20.404Z,102663.38
2023-02-27T13:04:48.275Z,102661.78
2023-02-27T13:07:21.303Z,102657.69
2023-02-27T13:09:50.371Z,102654.56
2023-02-27T13:12:20.674Z,102655.09
2023-02-27T13:14:50.044Z,102646.88
2023-02-27T13:17:18.238Z,102650.84
2023-02-27T13:19:47.525Z,102653.81
2023-02-27T13:22:17.611Z,102648.44
2023-02-27T13:24:45.953Z,102653.88
2023-02-27T13:27:16.452Z,102655.41
2023-02-27T13:29:45.547Z,102647.28
2023-02-27T13:32:32.711Z,102652.84
2023-02-27T13:35:19.194Z,102644.44
2023-02-27T13:37:49.308Z,102650.63
2023-02-27T13:40:26.752Z,102642.63
2023-02-27T13:42:55.546Z,102643.41
2023-02-27T13:45:40.555Z,102644.50
2023-02-27T13:48:36.129Z,102643.59
2023-02-27T13:51:02.477Z,102642.94
2023-02-27T13:53:29.749Z,102642.81
2023-02-27T13:55:58.123Z,102645.75
2023-02-27T13:58:24.612Z,102639.28
2023-02-27T14:01:01.135Z,102637.06
2023-02-27T14:03:30.160Z,102637.00
2023-02-27T14:05:58.396Z,102632.09
2023-02-27T14:08:26.705Z,102635.69
2023-02-27T14:10:57.780Z,102638.19
2023-02-27T14:13:48.284Z,102631.53
2023-02-27T14:16:38.302Z,102635.03
2023-02-27T14:19:25.432Z,102631.94
2023-02-27T14:21:53.154Z,102628.31
2023-02-27T14:24:21.034Z,102633.66
2023-02-27T14:26:47.427Z,102626.38
2023-02-27T14:29:18.057Z,102626.22
2023-02-27T14:31:45.033Z,102628.47
2023-02-27T14:34:14.671Z,102621.16
2023-02-27T14:36:43.422Z,102620.31
2023-02-27T14:39:19.196Z,102608.06
2023-02-27T14:41:48.259Z,102608.84
2023-02-27T14:44:18.810Z,102615.97
2023-02-27T14:46:45.133Z,102603.50
2023-02-27T14:49:19.774Z,102620.47
2023-02-27T14:51:46.136Z,102613.16
2023-02-27T14:54:13.707Z,102614.66
2023-02-27T14:56:40.379Z,102608.53
2023-02-27T14:59:20.913Z,102615.94
2023-02-27T15:01:47.287Z,102613.22
2023-02-27T15:04:16.130Z,102605.59
2023-02-27T15:06:45.861Z,102618.06
2023-02-27T15:09:19.898Z,102613.75
2023-02-27T15:11:57.441Z,102615.69
2023-02-27T15:14:30.787Z,102612.88
2023-02-27T15:16:57.705Z,102614.69
2023-02-27T15:19:25.003Z,102608.31
2023-02-27T15:21:53.446Z,102618.28
2023-02-27T15:24:24.549Z,102609.75
2023-02-27T15:26:52.948Z,102609.75
2023-02-27T15:29:20.818Z,102613.16
2023-02-27T15:31:47.270Z,102608.50
2023-02-27T15:34:14.791Z,102608.09
2023-02-27T15:36:45.264Z,102611.88
2023-02-27T15:39:17.556Z,102619.91
2023-02-27T15:41:45.067Z,102614.25
2023-02-27T15:44:12.994Z,102605.00
2023-02-27T15:46:39.731Z,102609.00
2023-02-27T15:49:06.262Z,102612.63
2023-02-27T15:51:33.968Z,102612.16
2023-02-27T15:54:00.596Z,102619.63
2023-02-27T15:56:31.280Z,102621.09
2023-02-27T15:59:00.892Z,102614.78
2023-02-27T16:01:28.583Z,102608.72
2023-02-27T16:03:56.189Z,102615.75
2023-02-27T16:06:25.022Z,102620.47
2023-02-27T16:08:52.757Z,102611.53
2023-02-27T16:11:19.696Z,102613.47
2023-02-27T16:13:47.875Z,102615.97
2023-02-27T16:16:28.650Z,102620.13
2023-02-27T16:18:55.974Z,102623.25
2023-02-27T16:21:23.303Z,102622.09
2023-02-27T16:23:50.127Z,102628.28
2023-02-27T16:26:34.441Z,102626.84
2023-02-27T16:29:03.853Z,102627.31
2023-02-27T16:31:31.899Z,102632.66
2023-02-27T16:33:59.220Z,102627.28
2023-02-27T16:36:26.743Z,102627.22
2023-02-27T16:38:53.741Z,102631.38
2023-02-27T16:41:21.132Z,102631.34
2023-02-27T16:43:48.450Z,102636.44
2023-02-27T16:46:17.783Z,102635.25
2023-02-27T16:48:44.141Z,102641.78
2023-02-27T16:51:14.930Z,102641.63
2023-02-27T16:53:41.261Z,102639.50
2023-02-27T16:56:08.519Z,102645.09
2023-02-27T16:58:34.837Z,102648.09
2023-02-27T17:01:01.243Z,102644.53
2023-02-27T17:03:29.025Z,102651.22
2023-02-27T17:05:55.340Z,102642.97
2023-02-27T17:08:21.708Z,102654.47
2023-02-27T17:10:48.045Z,102653.91
2023-02-27T17:13:14.724Z,102660.34
2023-02-27T17:15:41.061Z,102661.25
2023-02-27T17:18:09.356Z,102658.84
2023-02-27T17:20:37.299Z,102661.88
2023-02-27T17:23:03.614Z,102663.91
2023-02-27T17:25:29.940Z,102663.28
2023-02-27T17:27:56.250Z,102666.16
2023-02-27T17:30:22.529Z,102669.84
2023-02-27T17:32:48.843Z,102669.13
2023-02-27T17:35:15.183Z,102671.94
2023-02-27T17:37:42.874Z,102678.38
2023-02-27T17:40:09.946Z,102679.50
2023-02-27T17:42:36.671Z,102677.97
2023-02-27T17:45:03.086Z,102684.06
2023-02-27T17:47:31.204Z,102692.81
2023-02-27T17:49:57.776Z,102690.25
2023-02-27T17:52:24.411Z,102689.50
2023-02-27T17:54:52.094Z,102686.19
2023-02-27T17:57:18.458Z,102688.00
2023-02-27T17:59:44.801Z,102692.34
2023-02-27T18:02:11.711Z,102700.22
2023-02-27T18:04:38.051Z,102694.16
2023-02-27T18:07:04.420Z,102703.03
2023-02-27T18:09:30.756Z,102704.69
2023-02-27T18:11:58.379Z,102712.38
2023-02-27T18:14:24.764Z,102699.53
2023-02-27T18:16:51.096Z,102709.34
2023-02-27T18:19:17.487Z,102720.75
2023-02-27T18:21:44.099Z,102713.72
2023-02-27T18:24:10.445Z,102718.13
2023-02-27T18:26:37.193Z,102717.22
2023-02-27T18:29:06.538Z,102714.44
2023-02-27T18:31:33.771Z,102718.13
2023-02-27T18:34:00.612Z,102717.38
2023-02-27T18:36:27.455Z,102720.25
2023-02-27T18:38:54.154Z,102717.91
2023-02-27T18:41:20.584Z,102721.78
2023-02-27T18:43:46.982Z,102725.63
2023-02-27T18:46:14.762Z,102725.84
2023-02-27T18:48:43.223Z,102727.81
2023-02-27T18:51:11.983Z,102718.53
2023-02-27T18:53:38.974Z,102730.88
2023-02-27T18:56:08.685Z,102726.91
2023-02-27T18:58:35.364Z,102721.72
2023-02-27T19:01:01.948Z,102729.72
2023-02-27T19:03:30.093Z,102729.06
2023-02-27T19:05:56.536Z,102724.84
2023-02-27T19:08:23.217Z,102734.66
2023-02-27T19:10:49.524Z,102729.47
2023-02-27T19:13:15.813Z,102726.09
2023-02-27T19:15:42.127Z,102727.91
2023-02-27T19:18:08.445Z,102731.56
2023-02-27T19:20:36.122Z,102737.81
2023-02-27T19:23:02.514Z,102732.56
2023-02-27T19:25:28.806Z,102737.00
2023-02-27T19:27:55.123Z,102737.13
2023-02-27T19:30:21.693Z,102739.81
2023-02-27T19:32:47.997Z,102738.16
2023-02-27T19:35:14.292Z,102738.28
2023-02-27T19:37:42.166Z,102734.91
2023-02-27T19:40:09.498Z,102742.91
2023-02-27T19:42:35.874Z,102743.91
2023-02-27T19:45:02.212Z,102737.81
2023-02-27T19:47:28.685Z,102738.81
2023-02-27T19:49:55.006Z,102739.84
2023-02-27T19:52:21.329Z,102738.19
2023-02-27T19:54:48.987Z,102745.22
2023-02-27T19:57:15.275Z,102741.06
2023-02-27T19:59:41.858Z,102754.22
2023-02-27T20:02:10.025Z,102744.78
2023-02-27T20:04:36.376Z,102748.22
2023-02-27T20:07:02.860Z,102750.00
2023-02-27T20:09:29.173Z,102747.38
2023-02-27T20:11:56.866Z,102750.84
2023-02-27T20:14:23.267Z,102750.91
2023-02-27T20:16:49.604Z,102753.53
2023-02-27T20:19:17.137Z,102752.63
2023-02-27T20:21:44.051Z,102759.69
2023-02-27T20:24:10.928Z,102744.91
2023-02-27T20:26:38.233Z,102747.56
2023-02-27T20:29:09.167Z,102745.00
2023-02-27T20:31:36.684Z,102751.16
2023-02-27T20:34:03.574Z,102748.66
2023-02-27T20:36:29.880Z,102747.88
2023-02-27T20:38:56.215Z,102747.13
2023-02-27T20:41:23.191Z,102742.06
2023-02-27T20:43:49.663Z,102738.63
2023-02-27T20:46:17.954Z,102735.19
2023-02-27T20:48:44.556Z,102736.09
2023-02-27T20:51:11.960Z,102736.06
2023-02-27T20:53:39.194Z,102740.53
2023-02-27T20:56:06.022Z,102737.91
2023-02-27T20:58:32.916Z,102740.56
2023-02-27T21:00:59.536Z,102737.22
2023-02-27T21:03:29.259Z,102739.06
2023-02-27T21:05:58.339Z,102739.06
2023-02-27T21:08:24.780Z,102739.84
2023-02-27T21:10:51.295Z,102734.59
2023-02-27T21:13:17.649Z,102741.69
2023-02-27T21:15:44.143Z,102739.91
2023-02-27T21:18:10.512Z,102736.50
2023-02-27T21:20:38.849Z,102737.41
2023-02-27T21:23:05.154Z,102739.16
2023-02-27T21:25:31.434Z,102737.50
2023-02-27T21:27:57.758Z,102739.31
2023-02-27T21:30:24.086Z,102739.41
2023-02-27T21:32:50.390Z,102737.75
2023-02-27T21:35:16.739Z,102749.16
2023-02-27T21:37:44.394Z,102742.31
2023-02-27T21:40:11.522Z,102748.50
2023-02-27T21:42:37.865Z,102746.88
2023-02-27T21:45:04.760Z,102741.75
2023-02-27T21:47:31.316Z,102746.97
2023-02-27T21:49:57.605Z,102740.03
2023-02-27T21:52:23.892Z,102736.59
2023-02-27T21:54:51.586Z,102741.06
2023-02-27T21:57:17.889Z,102739.34
2023-02-27T21:59:44.165Z,102745.56
2023-02-27T22:02:12.242Z,102750.81
2023-02-27T22:04:38.559Z,102746.50
2023-02-27T22:07:05.092Z,102741.34
2023-02-27T22:09:31.396Z,102747.44
2023-02-27T22:11:59.042Z,102752.66
2023-02-27T22:14:25.334Z,102744.13
2023-02-27T22:16:51.621Z,102743.25
2023-02-27T22:19:18.428Z,102745.16
2023-02-27T22:21:44.912Z,102745.16
2023-02-27T22:24:11.454Z,102746.09
2023-02-27T22:26:38.146Z,102748.03
2023-02-27T22:29:05.912Z,102747.13
2023-02-27T22:31:33.807Z,102742.78
2023-02-27T22:34:02.434Z,102747.13
2023-02-27T22:36:29.765Z,102745.50
2023-02-27T22:38:56.470Z,102747.19
2023-02-27T22:41:23.882Z,102753.34
2023-02-27T22:43:50.529Z,102762.03
2023-02-27T22:46:23.970Z,102762.03
2023-02-27T22:48:53.274Z,102758.63
2023-02-27T22:51:19.713Z,102763.09
2023-02-27T22:53:46.121Z,102765.63
2023-02-27T22:56:13.584Z,102777.06
2023-02-27T22:58:40.522Z,102765.84
2023-02-27T23:01:07.497Z,102767.59
2023-02-27T23:03:35.198Z,102773.72
2023-02-27T23:06:01.545Z,102770.31
2023-02-27T23:08:27.858Z,102773.94
2023-02-27T23:10:54.204Z,102785.25
2023-02-27T23:13:20.578Z,102783.50
2023-02-27T23:15:46.976Z,102783.50
2023-02-27T23:18:13.297Z,102786.22
2023-02-27T23:20:40.999Z,102781.78
2023-02-27T23:23:07.410Z,102796.59
2023-02-27T23:25:33.891Z,102793.25
2023-02-27T23:28:00.463Z,102792.34
2023-02-27T23:30:27.053Z,102794.00
2023-02-27T23:32:53.598Z,102798.41
2023-02-27T23:35:19.907Z,102793.13
2023-02-27T23:37:47.606Z,102792.53
2023-02-27T23:40:14.113Z,102792.63
2023-02-27T23:42:40.481Z,102790.03
2023-02-27T23:45:07.217Z,102786.59
2023-02-27T23:47:33.530Z,102793.72
2023-02-27T23:49:59.852Z,102793.81
2023-02-27T23:52:26.163Z,102791.25
2023-02-27T23:54:53.837Z,102792.91
2023-02-27T23:57:20.136Z,102789.47
2023-02-27T23:59:46.551Z,102792.09
